sensor_id;sensor_type;location;lat;lon;timestamp;temperature;humidity
14735;DHT22;7458;49.002;8.472;2023-02-24T00:01:50;10.70;99.90
14735;DHT22;7458;49.002;8.472;2023-02-24T00:04:20;10.70;99.90
14735;DHT22;7458;49.002;8.472;2023-02-24T00:06:46;10.60;99.90
14735;DHT22;7458;49.002;8.472;2023-02-24T00:11:45;10.50;99.90
14735;DHT22;7458;49.002;8.472;2023-02-24T00:14:34;10.40;99.90
14735;DHT22;7458;49.002;8.472;2023-02-24T00:17:04;10.30;99.90
14735;DHT22;7458;49.002;8.472;2023-02-24T00:19:34;10.40;99.90
14735;DHT22;7458;49.002;8.472;2023-02-24T00:22:03;10.40;99.90
14735;DHT22;7458;49.002;8.472;2023-02-24T00:24:30;10.40;99.90
14735;DHT22;7458;49.002;8.472;2023-02-24T00:26:58;10.40;99.90
14735;DHT22;7458;49.002;8.472;2023-02-24T00:29:27;10.40;99.90
14735;DHT22;7458;49.002;8.472;2023-02-24T00:31:55;10.40;99.90
14735;DHT22;7458;49.002;8.472;2023-02-24T00:34:30;10.40;99.90
14735;DHT22;7458;49.002;8.472;2023-02-24T00:36:58;10.40;99.90
14735;DHT22;7458;49.002;8.472;2023-02-24T00:39:24;10.40;99.90
14735;DHT22;7458;49.002;8.472;2023-02-24T00:41:55;10.40;99.90
14735;DHT22;7458;49.002;8.472;2023-02-24T00:44:30;10.40;99.90
14735;DHT22;7458;49.002;8.472;2023-02-24T00:46:58;10.40;99.90
14735;DHT22;7458;49.002;8.472;2023-02-24T00:49:27;10.40;99.90
14735;DHT22;7458;49.002;8.472;2023-02-24T00:51:54;10.40;99.90
14735;DHT22;7458;49.002;8.472;2023-02-24T00:54:23;10.40;99.90
14735;DHT22;7458;49.002;8.472;2023-02-24T00:56:53;10.40;99.90
14735;DHT22;7458;49.002;8.472;2023-02-24T00:59:20;10.40;99.90
14735;DHT22;7458;49.002;8.472;2023-02-24T01:01:48;10.30;99.90
14735;DHT22;7458;49.002;8.472;2023-02-24T01:04:16;10.30;99.90
14735;DHT22;7458;49.002;8.472;2023-02-24T01:06:45;10.20;99.90
14735;DHT22;7458;49.002;8.472;2023-02-24T01:09:18;10.30;99.90
14735;DHT22;7458;49.002;8.472;2023-02-24T01:11:47;10.30;99.90
14735;DHT22;7458;49.002;8.472;2023-02-24T01:14:34;10.30;99.90
14735;DHT22;7458;49.002;8.472;2023-02-24T01:17:00;10.20;99.90
14735;DHT22;7458;49.002;8.472;2023-02-24T01:19:29;10.20;99.90
14735;DHT22;7458;49.002;8.472;2023-02-24T01:21:57;10.20;99.90
14735;DHT22;7458;49.002;8.472;2023-02-24T01:24:26;10.20;99.90
14735;DHT22;7458;49.002;8.472;2023-02-24T01:26:53;10.10;99.90
14735;DHT22;7458;49.002;8.472;2023-02-24T01:29:19;10.00;99.90
14735;DHT22;7458;49.002;8.472;2023-02-24T01:31:48;10.10;99.90
14735;DHT22;7458;49.002;8.472;2023-02-24T01:34:16;10.10;99.90
14735;DHT22;7458;49.002;8.472;2023-02-24T01:36:42;10.10;99.90
14735;DHT22;7458;49.002;8.472;2023-02-24T01:39:12;10.10;99.90
14735;DHT22;7458;49.002;8.472;2023-02-24T01:41:43;10.10;99.90
14735;DHT22;7458;49.002;8.472;2023-02-24T01:46:44;10.10;99.90
14735;DHT22;7458;49.002;8.472;2023-02-24T01:49:16;10.00;99.90
14735;DHT22;7458;49.002;8.472;2023-02-24T01:51:59;10.00;99.90
14735;DHT22;7458;49.002;8.472;2023-02-24T01:54:33;10.00;99.90
14735;DHT22;7458;49.002;8.472;2023-02-24T01:57:04;10.10;99.90
14735;DHT22;7458;49.002;8.472;2023-02-24T01:59:33;10.00;99.90
14735;DHT22;7458;49.002;8.472;2023-02-24T02:02:01;10.00;99.90
14735;DHT22;7458;49.002;8.472;2023-02-24T02:04:48;10.00;99.90
14735;DHT22;7458;49.002;8.472;2023-02-24T02:07:20;10.10;99.90
14735;DHT22;7458;49.002;8.472;2023-02-24T02:09:48;10.10;99.90
14735;DHT22;7458;49.002;8.472;2023-02-24T02:12:14;10.10;99.90
14735;DHT22;7458;49.002;8.472;2023-02-24T02:14:45;10.10;99.90
14735;DHT22;7458;49.002;8.472;2023-02-24T02:30:31;10.50;99.90
14735;DHT22;7458;49.002;8.472;2023-02-24T02:32:58;10.50;99.90
14735;DHT22;7458;49.002;8.472;2023-02-24T02:41:31;10.50;99.90
14735;DHT22;7458;49.002;8.472;2023-02-24T02:47:07;10.50;99.90
14735;DHT22;7458;49.002;8.472;2023-02-24T02:49:51;10.40;99.90
14735;DHT22;7458;49.002;8.472;2023-02-24T02:52:32;10.40;99.90
14735;DHT22;7458;49.002;8.472;2023-02-24T02:55:41;10.40;99.90
14735;DHT22;7458;49.002;8.472;2023-02-24T02:58:16;10.40;99.90
14735;DHT22;7458;49.002;8.472;2023-02-24T03:00:57;10.30;99.90
14735;DHT22;7458;49.002;8.472;2023-02-24T03:03:37;10.30;99.90
14735;DHT22;7458;49.002;8.472;2023-02-24T03:06:14;10.30;99.90
14735;DHT22;7458;49.002;8.472;2023-02-24T03:08:44;10.20;99.90
14735;DHT22;7458;49.002;8.472;2023-02-24T03:11:23;10.30;99.90
14735;DHT22;7458;49.002;8.472;2023-02-24T03:13:54;10.30;99.90
14735;DHT22;7458;49.002;8.472;2023-02-24T03:16:23;10.30;99.90
14735;DHT22;7458;49.002;8.472;2023-02-24T03:19:03;10.30;99.90
14735;DHT22;7458;49.002;8.472;2023-02-24T03:21:58;10.30;99.90
14735;DHT22;7458;49.002;8.472;2023-02-24T03:24:32;10.30;99.90
14735;DHT22;7458;49.002;8.472;2023-02-24T03:27:14;10.30;99.90
14735;DHT22;7458;49.002;8.472;2023-02-24T03:29:54;10.30;99.90
14735;DHT22;7458;49.002;8.472;2023-02-24T03:32:37;10.20;99.90
14735;DHT22;7458;49.002;8.472;2023-02-24T03:35:31;10.20;99.90
14735;DHT22;7458;49.002;8.472;2023-02-24T03:38:03;10.20;99.90
14735;DHT22;7458;49.002;8.472;2023-02-24T03:40:31;10.20;99.90
14735;DHT22;7458;49.002;8.472;2023-02-24T03:43:12;10.20;99.90
14735;DHT22;7458;49.002;8.472;2023-02-24T03:45:50;10.20;99.90
14735;DHT22;7458;49.002;8.472;2023-02-24T03:48:16;10.20;99.90
14735;DHT22;7458;49.002;8.472;2023-02-24T03:50:44;10.20;99.90
14735;DHT22;7458;49.002;8.472;2023-02-24T03:57:16;10.20;99.90
14735;DHT22;7458;49.002;8.472;2023-02-24T03:59:31;10.20;99.90
14735;DHT22;7458;49.002;8.472;2023-02-24T04:02:22;10.20;99.90
14735;DHT22;7458;49.002;8.472;2023-02-24T04:05:02;10.20;99.90
14735;DHT22;7458;49.002;8.472;2023-02-24T04:07:54;10.20;99.90
14735;DHT22;7458;49.002;8.472;2023-02-24T04:13:37;10.20;99.90
14735;DHT22;7458;49.002;8.472;2023-02-24T04:16:16;10.20;99.90
14735;DHT22;7458;49.002;8.472;2023-02-24T04:18:55;10.10;99.90
14735;DHT22;7458;49.002;8.472;2023-02-24T04:21:28;10.10;99.90
14735;DHT22;7458;49.002;8.472;2023-02-24T04:23:58;10.10;99.90
14735;DHT22;7458;49.002;8.472;2023-02-24T04:26:30;10.10;99.90
14735;DHT22;7458;49.002;8.472;2023-02-24T04:28:58;10.10;99.90
14735;DHT22;7458;49.002;8.472;2023-02-24T04:31:24;10.10;99.90
14735;DHT22;7458;49.002;8.472;2023-02-24T04:33:52;10.10;99.90
14735;DHT22;7458;49.002;8.472;2023-02-24T04:36:20;10.10;99.90
14735;DHT22;7458;49.002;8.472;2023-02-24T04:38:47;10.10;99.90
14735;DHT22;7458;49.002;8.472;2023-02-24T04:41:14;10.10;99.90
14735;DHT22;7458;49.002;8.472;2023-02-24T04:43:47;10.10;99.90
14735;DHT22;7458;49.002;8.472;2023-02-24T04:46:16;10.10;99.90
14735;DHT22;7458;49.002;8.472;2023-02-24T04:48:44;10.10;99.90
14735;DHT22;7458;49.002;8.472;2023-02-24T04:51:11;10.10;99.90
14735;DHT22;7458;49.002;8.472;2023-02-24T04:53:37;10.10;99.90
14735;DHT22;7458;49.002;8.472;2023-02-24T04:56:04;10.10;99.90
14735;DHT22;7458;49.002;8.472;2023-02-24T04:58:35;10.10;99.90
14735;DHT22;7458;49.002;8.472;2023-02-24T05:01:09;10.10;99.90
14735;DHT22;7458;49.002;8.472;2023-02-24T05:03:37;10.10;99.90
14735;DHT22;7458;49.002;8.472;2023-02-24T05:06:07;10.10;99.90
14735;DHT22;7458;49.002;8.472;2023-02-24T05:08:38;10.10;99.90
14735;DHT22;7458;49.002;8.472;2023-02-24T05:11:04;10.10;99.90
14735;DHT22;7458;49.002;8.472;2023-02-24T05:13:31;10.10;99.90
14735;DHT22;7458;49.002;8.472;2023-02-24T05:16:03;10.10;99.90
14735;DHT22;7458;49.002;8.472;2023-02-24T05:18:32;10.10;99.90
14735;DHT22;7458;49.002;8.472;2023-02-24T05:21:19;10.10;99.90
14735;DHT22;7458;49.002;8.472;2023-02-24T05:24:00;10.10;99.90
14735;DHT22;7458;49.002;8.472;2023-02-24T05:26:31;10.10;99.90
14735;DHT22;7458;49.002;8.472;2023-02-24T05:29:00;10.00;99.90
14735;DHT22;7458;49.002;8.472;2023-02-24T05:31:29;10.10;99.90
14735;DHT22;7458;49.002;8.472;2023-02-24T05:34:01;10.00;99.90
14735;DHT22;7458;49.002;8.472;2023-02-24T05:36:38;10.00;99.90
14735;DHT22;7458;49.002;8.472;2023-02-24T05:39:05;10.00;99.90
14735;DHT22;7458;49.002;8.472;2023-02-24T05:41:38;10.00;99.90
14735;DHT22;7458;49.002;8.472;2023-02-24T05:44:10;10.00;99.90
14735;DHT22;7458;49.002;8.472;2023-02-24T05:46:39;10.00;99.90
14735;DHT22;7458;49.002;8.472;2023-02-24T05:49:11;10.00;99.90
14735;DHT22;7458;49.002;8.472;2023-02-24T05:51:39;10.00;99.90
14735;DHT22;7458;49.002;8.472;2023-02-24T05:54:12;10.00;99.90
14735;DHT22;7458;49.002;8.472;2023-02-24T05:56:40;9.80;99.90
14735;DHT22;7458;49.002;8.472;2023-02-24T05:59:10;9.90;99.90
14735;DHT22;7458;49.002;8.472;2023-02-24T06:01:39;9.90;99.90
14735;DHT22;7458;49.002;8.472;2023-02-24T06:04:07;10.00;99.90
14735;DHT22;7458;49.002;8.472;2023-02-24T06:06:37;10.00;99.90
14735;DHT22;7458;49.002;8.472;2023-02-24T06:09:10;10.00;99.90
14735;DHT22;7458;49.002;8.472;2023-02-24T06:11:41;10.00;99.90
14735;DHT22;7458;49.002;8.472;2023-02-24T06:14:10;10.00;99.90
14735;DHT22;7458;49.002;8.472;2023-02-24T06:16:39;10.00;99.90
14735;DHT22;7458;49.002;8.472;2023-02-24T06:19:07;10.00;99.90
14735;DHT22;7458;49.002;8.472;2023-02-24T06:21:35;10.00;99.90
14735;DHT22;7458;49.002;8.472;2023-02-24T06:24:06;10.00;99.90
14735;DHT22;7458;49.002;8.472;2023-02-24T06:26:43;10.20;99.90
14735;DHT22;7458;49.002;8.472;2023-02-24T06:29:16;10.20;99.90
14735;DHT22;7458;49.002;8.472;2023-02-24T06:31:43;10.20;99.90
14735;DHT22;7458;49.002;8.472;2023-02-24T06:34:10;10.10;99.90
14735;DHT22;7458;49.002;8.472;2023-02-24T06:36:37;10.20;99.90
14735;DHT22;7458;49.002;8.472;2023-02-24T06:39:04;10.20;99.90
14735;DHT22;7458;49.002;8.472;2023-02-24T06:41:33;10.20;99.90
14735;DHT22;7458;49.002;8.472;2023-02-24T06:43:59;10.20;99.90
14735;DHT22;7458;49.002;8.472;2023-02-24T06:46:25;10.20;99.90
14735;DHT22;7458;49.002;8.472;2023-02-24T06:48:51;10.10;99.90
14735;DHT22;7458;49.002;8.472;2023-02-24T06:51:17;10.00;99.90
14735;DHT22;7458;49.002;8.472;2023-02-24T06:53:43;10.10;99.90
14735;DHT22;7458;49.002;8.472;2023-02-24T06:56:10;10.10;99.90
14735;DHT22;7458;49.002;8.472;2023-02-24T06:58:47;10.10;99.90
14735;DHT22;7458;49.002;8.472;2023-02-24T07:01:17;10.10;99.90
14735;DHT22;7458;49.002;8.472;2023-02-24T07:03:45;10.10;99.90
14735;DHT22;7458;49.002;8.472;2023-02-24T07:06:28;10.10;99.90
14735;DHT22;7458;49.002;8.472;2023-02-24T07:09:00;10.10;99.90
14735;DHT22;7458;49.002;8.472;2023-02-24T07:11:30;10.10;99.90
14735;DHT22;7458;49.002;8.472;2023-02-24T07:13:57;10.10;99.90
14735;DHT22;7458;49.002;8.472;2023-02-24T07:16:25;10.20;99.90
14735;DHT22;7458;49.002;8.472;2023-02-24T07:19:03;10.20;99.90
14735;DHT22;7458;49.002;8.472;2023-02-24T07:21:36;10.20;99.90
14735;DHT22;7458;49.002;8.472;2023-02-24T07:24:09;10.20;99.90
14735;DHT22;7458;49.002;8.472;2023-02-24T07:26:38;10.20;99.90
14735;DHT22;7458;49.002;8.472;2023-02-24T07:29:07;10.20;99.90
14735;DHT22;7458;49.002;8.472;2023-02-24T07:31:37;10.30;99.90
14735;DHT22;7458;49.002;8.472;2023-02-24T07:34:03;10.30;99.90
14735;DHT22;7458;49.002;8.472;2023-02-24T07:36:30;10.30;99.90
14735;DHT22;7458;49.002;8.472;2023-02-24T07:39:04;10.20;99.90
14735;DHT22;7458;49.002;8.472;2023-02-24T07:41:34;10.20;99.90
14735;DHT22;7458;49.002;8.472;2023-02-24T07:44:02;10.20;99.90
14735;DHT22;7458;49.002;8.472;2023-02-24T07:46:34;10.20;99.90
14735;DHT22;7458;49.002;8.472;2023-02-24T07:48:59;10.20;99.90
14735;DHT22;7458;49.002;8.472;2023-02-24T07:51:26;10.20;99.90
14735;DHT22;7458;49.002;8.472;2023-02-24T07:53:57;10.30;99.90
14735;DHT22;7458;49.002;8.472;2023-02-24T07:56:26;10.30;99.90
14735;DHT22;7458;49.002;8.472;2023-02-24T07:59:01;10.30;99.90
14735;DHT22;7458;49.002;8.472;2023-02-24T08:01:33;10.30;99.90
14735;DHT22;7458;49.002;8.472;2023-02-24T08:04:05;10.20;99.90
14735;DHT22;7458;49.002;8.472;2023-02-24T08:06:35;10.20;99.90
14735;DHT22;7458;49.002;8.472;2023-02-24T08:09:05;10.20;99.90
14735;DHT22;7458;49.002;8.472;2023-02-24T08:11:44;10.30;99.90
14735;DHT22;7458;49.002;8.472;2023-02-24T08:14:21;10.30;99.90
14735;DHT22;7458;49.002;8.472;2023-02-24T08:16:58;10.30;99.90
14735;DHT22;7458;49.002;8.472;2023-02-24T08:19:28;10.20;99.90
14735;DHT22;7458;49.002;8.472;2023-02-24T08:22:00;10.30;99.90
14735;DHT22;7458;49.002;8.472;2023-02-24T08:24:47;10.30;99.90
14735;DHT22;7458;49.002;8.472;2023-02-24T08:27:22;10.30;99.90
14735;DHT22;7458;49.002;8.472;2023-02-24T08:29:52;10.50;99.90
14735;DHT22;7458;49.002;8.472;2023-02-24T08:32:31;10.50;99.90
14735;DHT22;7458;49.002;8.472;2023-02-24T08:35:04;10.50;99.90
14735;DHT22;7458;49.002;8.472;2023-02-24T08:37:40;10.60;99.90
14735;DHT22;7458;49.002;8.472;2023-02-24T08:40:23;10.30;99.90
14735;DHT22;7458;49.002;8.472;2023-02-24T08:43:29;10.30;99.90
14735;DHT22;7458;49.002;8.472;2023-02-24T08:48:53;10.40;99.90
14735;DHT22;7458;49.002;8.472;2023-02-24T08:51:33;10.40;99.90
14735;DHT22;7458;49.002;8.472;2023-02-24T08:54:06;10.50;99.90
14735;DHT22;7458;49.002;8.472;2023-02-24T08:56:36;10.50;99.90
14735;DHT22;7458;49.002;8.472;2023-02-24T08:59:12;10.50;99.90
14735;DHT22;7458;49.002;8.472;2023-02-24T09:02:05;10.40;99.90
14735;DHT22;7458;49.002;8.472;2023-02-24T09:07:30;10.40;99.90
14735;DHT22;7458;49.002;8.472;2023-02-24T09:10:07;10.40;99.90
14735;DHT22;7458;49.002;8.472;2023-02-24T09:12:45;10.40;99.90
14735;DHT22;7458;49.002;8.472;2023-02-24T09:15:12;10.40;99.90
14735;DHT22;7458;49.002;8.472;2023-02-24T09:17:42;10.40;99.90
14735;DHT22;7458;49.002;8.472;2023-02-24T09:20:21;10.40;99.90
14735;DHT22;7458;49.002;8.472;2023-02-24T09:23:05;10.40;99.90
14735;DHT22;7458;49.002;8.472;2023-02-24T09:25:35;10.50;99.90
14735;DHT22;7458;49.002;8.472;2023-02-24T09:30:56;10.50;99.90
14735;DHT22;7458;49.002;8.472;2023-02-24T09:36:14;10.50;99.90
14735;DHT22;7458;49.002;8.472;2023-02-24T09:38:49;10.50;99.90
14735;DHT22;7458;49.002;8.472;2023-02-24T09:41:40;10.60;99.90
14735;DHT22;7458;49.002;8.472;2023-02-24T09:49:57;10.50;99.90
14735;DHT22;7458;49.002;8.472;2023-02-24T09:52:30;10.60;99.90
14735;DHT22;7458;49.002;8.472;2023-02-24T10:01:15;10.60;99.90
14735;DHT22;7458;49.002;8.472;2023-02-24T10:10:26;10.60;99.90
14735;DHT22;7458;49.002;8.472;2023-02-24T10:13:14;10.60;99.90
14735;DHT22;7458;49.002;8.472;2023-02-24T10:15:55;10.70;99.90
14735;DHT22;7458;49.002;8.472;2023-02-24T10:22:17;10.60;99.90
14735;DHT22;7458;49.002;8.472;2023-02-24T10:28:02;11.90;99.90
14735;DHT22;7458;49.002;8.472;2023-02-24T10:33:51;15.50;99.90
14735;DHT22;7458;49.002;8.472;2023-02-24T10:36:23;15.60;99.90
14735;DHT22;7458;49.002;8.472;2023-02-24T10:39:34;14.60;99.90
14735;DHT22;7458;49.002;8.472;2023-02-24T10:42:00;13.90;99.90
14735;DHT22;7458;49.002;8.472;2023-02-24T10:44:42;13.30;99.90
14735;DHT22;7458;49.002;8.472;2023-02-24T10:47:19;12.90;99.90
14735;DHT22;7458;49.002;8.472;2023-02-24T10:49:57;12.70;99.90
14735;DHT22;7458;49.002;8.472;2023-02-24T10:52:33;12.50;99.90
14735;DHT22;7458;49.002;8.472;2023-02-24T10:55:38;12.40;99.90
14735;DHT22;7458;49.002;8.472;2023-02-24T11:01:02;11.90;99.90
14735;DHT22;7458;49.002;8.472;2023-02-24T11:03:48;11.90;99.90
14735;DHT22;7458;49.002;8.472;2023-02-24T11:06:30;11.80;99.90
14735;DHT22;7458;49.002;8.472;2023-02-24T11:09:19;11.80;99.90
14735;DHT22;7458;49.002;8.472;2023-02-24T11:11:55;11.70;99.90
14735;DHT22;7458;49.002;8.472;2023-02-24T11:14:53;11.70;99.90
14735;DHT22;7458;49.002;8.472;2023-02-24T11:17:49;11.80;99.90
14735;DHT22;7458;49.002;8.472;2023-02-24T11:20:40;11.80;99.90
14735;DHT22;7458;49.002;8.472;2023-02-24T11:23:13;12.00;99.90
14735;DHT22;7458;49.002;8.472;2023-02-24T11:25:46;12.20;99.90
14735;DHT22;7458;49.002;8.472;2023-02-24T11:28:23;12.30;99.90
14735;DHT22;7458;49.002;8.472;2023-02-24T11:34:38;12.60;99.90
14735;DHT22;7458;49.002;8.472;2023-02-24T11:45:38;11.90;99.90
14735;DHT22;7458;49.002;8.472;2023-02-24T11:48:20;11.90;99.90
14735;DHT22;7458;49.002;8.472;2023-02-24T11:50:57;11.90;99.90
14735;DHT22;7458;49.002;8.472;2023-02-24T11:59:17;12.00;99.90
14735;DHT22;7458;49.002;8.472;2023-02-24T12:05:12;12.10;99.90
14735;DHT22;7458;49.002;8.472;2023-02-24T12:10:21;12.10;99.90
14735;DHT22;7458;49.002;8.472;2023-02-24T12:15:54;12.20;99.90
14735;DHT22;7458;49.002;8.472;2023-02-24T12:18:32;12.20;99.90
14735;DHT22;7458;49.002;8.472;2023-02-24T12:23:41;12.10;99.90
14735;DHT22;7458;49.002;8.472;2023-02-24T12:26:25;12.20;99.90
14735;DHT22;7458;49.002;8.472;2023-02-24T12:35:04;12.30;99.90
14735;DHT22;7458;49.002;8.472;2023-02-24T12:40:46;12.20;99.90
14735;DHT22;7458;49.002;8.472;2023-02-24T12:43:35;12.10;99.90
14735;DHT22;7458;49.002;8.472;2023-02-24T12:46:30;12.20;99.90
14735;DHT22;7458;49.002;8.472;2023-02-24T12:49:25;12.30;99.90
14735;DHT22;7458;49.002;8.472;2023-02-24T12:55:12;12.20;99.90
14735;DHT22;7458;49.002;8.472;2023-02-24T13:00:38;12.30;99.90
14735;DHT22;7458;49.002;8.472;2023-02-24T13:03:25;12.40;99.90
14735;DHT22;7458;49.002;8.472;2023-02-24T13:06:05;12.50;99.90
14735;DHT22;7458;49.002;8.472;2023-02-24T13:12:19;12.70;99.90
14735;DHT22;7458;49.002;8.472;2023-02-24T13:14:48;12.60;99.90
14735;DHT22;7458;49.002;8.472;2023-02-24T13:17:18;12.50;99.90
14735;DHT22;7458;49.002;8.472;2023-02-24T13:19:46;12.40;99.90
14735;DHT22;7458;49.002;8.472;2023-02-24T13:27:22;12.50;99.90
14735;DHT22;7458;49.002;8.472;2023-02-24T13:30:06;12.40;99.90
14735;DHT22;7458;49.002;8.472;2023-02-24T13:35:42;12.30;99.90
14735;DHT22;7458;49.002;8.472;2023-02-24T13:41:33;12.20;99.90
14735;DHT22;7458;49.002;8.472;2023-02-24T14:02:20;11.80;99.90
14735;DHT22;7458;49.002;8.472;2023-02-24T14:04:53;11.80;99.90
14735;DHT22;7458;49.002;8.472;2023-02-24T14:07:24;11.80;99.90
14735;DHT22;7458;49.002;8.472;2023-02-24T14:10:17;11.80;99.90
14735;DHT22;7458;49.002;8.472;2023-02-24T14:12:45;11.80;99.90
14735;DHT22;7458;49.002;8.472;2023-02-24T14:15:22;11.70;99.90
14735;DHT22;7458;49.002;8.472;2023-02-24T14:18:00;11.70;99.90
14735;DHT22;7458;49.002;8.472;2023-02-24T14:20:33;11.70;99.90
14735;DHT22;7458;49.002;8.472;2023-02-24T14:23:01;11.70;99.90
14735;DHT22;7458;49.002;8.472;2023-02-24T14:25:55;11.80;99.90
14735;DHT22;7458;49.002;8.472;2023-02-24T14:28:28;11.70;99.90
14735;DHT22;7458;49.002;8.472;2023-02-24T14:30:57;11.60;99.90
14735;DHT22;7458;49.002;8.472;2023-02-24T14:33:28;11.60;99.90
14735;DHT22;7458;49.002;8.472;2023-02-24T14:35:57;11.60;99.90
14735;DHT22;7458;49.002;8.472;2023-02-24T14:40:56;11.60;99.90
14735;DHT22;7458;49.002;8.472;2023-02-24T14:43:22;11.70;99.90
14735;DHT22;7458;49.002;8.472;2023-02-24T14:45:50;11.60;99.90
14735;DHT22;7458;49.002;8.472;2023-02-24T14:48:28;11.70;99.90
14735;DHT22;7458;49.002;8.472;2023-02-24T14:51:00;11.70;99.90
14735;DHT22;7458;49.002;8.472;2023-02-24T14:53:36;11.80;99.90
14735;DHT22;7458;49.002;8.472;2023-02-24T14:56:09;11.80;99.90
14735;DHT22;7458;49.002;8.472;2023-02-24T14:58:43;11.80;99.90
14735;DHT22;7458;49.002;8.472;2023-02-24T15:01:23;11.80;99.90
14735;DHT22;7458;49.002;8.472;2023-02-24T15:03:57;11.70;99.90
14735;DHT22;7458;49.002;8.472;2023-02-24T15:06:33;11.80;99.90
14735;DHT22;7458;49.002;8.472;2023-02-24T15:09:32;11.80;99.90
14735;DHT22;7458;49.002;8.472;2023-02-24T15:12:33;11.80;99.90
14735;DHT22;7458;49.002;8.472;2023-02-24T15:17:45;11.70;99.90
14735;DHT22;7458;49.002;8.472;2023-02-24T15:22:59;11.80;99.90
14735;DHT22;7458;49.002;8.472;2023-02-24T15:25:39;11.80;99.90
14735;DHT22;7458;49.002;8.472;2023-02-24T15:28:28;11.80;99.90
14735;DHT22;7458;49.002;8.472;2023-02-24T15:31:04;11.80;99.90
14735;DHT22;7458;49.002;8.472;2023-02-24T15:33:40;11.70;99.90
14735;DHT22;7458;49.002;8.472;2023-02-24T15:36:10;11.70;99.90
14735;DHT22;7458;49.002;8.472;2023-02-24T15:38:42;11.60;99.90
14735;DHT22;7458;49.002;8.472;2023-02-24T15:41:11;11.60;99.90
14735;DHT22;7458;49.002;8.472;2023-02-24T15:43:54;11.60;99.90
14735;DHT22;7458;49.002;8.472;2023-02-24T15:46:26;11.60;99.90
14735;DHT22;7458;49.002;8.472;2023-02-24T15:48:55;11.60;99.90
14735;DHT22;7458;49.002;8.472;2023-02-24T15:51:38;11.60;99.90
14735;DHT22;7458;49.002;8.472;2023-02-24T15:54:10;11.60;99.90
14735;DHT22;7458;49.002;8.472;2023-02-24T15:56:39;11.60;99.90
14735;DHT22;7458;49.002;8.472;2023-02-24T15:59:06;11.50;99.90
14735;DHT22;7458;49.002;8.472;2023-02-24T16:01:33;11.50;99.90
14735;DHT22;7458;49.002;8.472;2023-02-24T16:03:59;11.50;99.90
14735;DHT22;7458;49.002;8.472;2023-02-24T16:06:26;11.40;99.90
14735;DHT22;7458;49.002;8.472;2023-02-24T16:08:54;11.40;99.90
14735;DHT22;7458;49.002;8.472;2023-02-24T16:11:25;11.40;99.90
14735;DHT22;7458;49.002;8.472;2023-02-24T16:13:57;11.50;99.90
14735;DHT22;7458;49.002;8.472;2023-02-24T16:16:25;11.50;99.90
14735;DHT22;7458;49.002;8.472;2023-02-24T16:18:51;11.50;99.90
14735;DHT22;7458;49.002;8.472;2023-02-24T16:21:17;11.80;99.90
14735;DHT22;7458;49.002;8.472;2023-02-24T16:23:44;12.20;99.90
14735;DHT22;7458;49.002;8.472;2023-02-24T16:26:16;12.00;99.90
14735;DHT22;7458;49.002;8.472;2023-02-24T16:28:54;11.80;99.90
14735;DHT22;7458;49.002;8.472;2023-02-24T16:31:23;11.70;99.90
14735;DHT22;7458;49.002;8.472;2023-02-24T16:33:50;11.70;99.90
14735;DHT22;7458;49.002;8.472;2023-02-24T16:36:16;11.50;99.90
14735;DHT22;7458;49.002;8.472;2023-02-24T16:38:42;11.30;99.90
14735;DHT22;7458;49.002;8.472;2023-02-24T16:41:11;11.20;99.90
14735;DHT22;7458;49.002;8.472;2023-02-24T16:43:38;11.20;99.90
14735;DHT22;7458;49.002;8.472;2023-02-24T16:46:06;11.20;99.90
14735;DHT22;7458;49.002;8.472;2023-02-24T16:48:37;11.20;99.90
14735;DHT22;7458;49.002;8.472;2023-02-24T16:51:06;11.20;99.90
14735;DHT22;7458;49.002;8.472;2023-02-24T16:53:33;11.10;99.90
14735;DHT22;7458;49.002;8.472;2023-02-24T16:55:59;11.10;99.90
14735;DHT22;7458;49.002;8.472;2023-02-24T16:58:25;11.00;99.90
14735;DHT22;7458;49.002;8.472;2023-02-24T17:00:55;11.10;99.90
14735;DHT22;7458;49.002;8.472;2023-02-24T17:03:44;11.00;99.90
14735;DHT22;7458;49.002;8.472;2023-02-24T17:06:11;11.00;99.90
14735;DHT22;7458;49.002;8.472;2023-02-24T17:08:37;11.30;99.90
14735;DHT22;7458;49.002;8.472;2023-02-24T17:11:03;11.00;99.90
14735;DHT22;7458;49.002;8.472;2023-02-24T17:13:29;10.90;99.90
14735;DHT22;7458;49.002;8.472;2023-02-24T17:15:55;10.90;99.90
14735;DHT22;7458;49.002;8.472;2023-02-24T17:18:25;10.90;99.90
14735;DHT22;7458;49.002;8.472;2023-02-24T17:20:52;10.90;99.90
14735;DHT22;7458;49.002;8.472;2023-02-24T17:23:18;10.90;99.90
14735;DHT22;7458;49.002;8.472;2023-02-24T17:25:46;10.90;99.90
14735;DHT22;7458;49.002;8.472;2023-02-24T17:28:18;10.90;99.90
14735;DHT22;7458;49.002;8.472;2023-02-24T17:30:43;10.90;99.90
14735;DHT22;7458;49.002;8.472;2023-02-24T17:33:09;10.80;99.90
14735;DHT22;7458;49.002;8.472;2023-02-24T17:35:35;10.80;99.90
14735;DHT22;7458;49.002;8.472;2023-02-24T17:38:01;10.80;99.90
14735;DHT22;7458;49.002;8.472;2023-02-24T17:40:27;10.80;99.90
14735;DHT22;7458;49.002;8.472;2023-02-24T17:42:53;10.80;99.90
14735;DHT22;7458;49.002;8.472;2023-02-24T17:45:19;10.80;99.90
14735;DHT22;7458;49.002;8.472;2023-02-24T17:47:45;10.70;99.90
14735;DHT22;7458;49.002;8.472;2023-02-24T17:50:12;10.70;99.90
14735;DHT22;7458;49.002;8.472;2023-02-24T17:52:38;10.70;99.90
14735;DHT22;7458;49.002;8.472;2023-02-24T17:55:04;10.60;99.90
14735;DHT22;7458;49.002;8.472;2023-02-24T17:57:35;10.70;99.90
14735;DHT22;7458;49.002;8.472;2023-02-24T18:00:01;10.70;99.90
14735;DHT22;7458;49.002;8.472;2023-02-24T18:02:27;10.70;99.90
14735;DHT22;7458;49.002;8.472;2023-02-24T18:04:53;10.60;99.90
14735;DHT22;7458;49.002;8.472;2023-02-24T18:07:19;10.60;99.90
14735;DHT22;7458;49.002;8.472;2023-02-24T18:09:45;10.60;99.90
14735;DHT22;7458;49.002;8.472;2023-02-24T18:12:11;10.60;99.90
14735;DHT22;7458;49.002;8.472;2023-02-24T18:14:37;10.60;99.90
14735;DHT22;7458;49.002;8.472;2023-02-24T18:17:02;10.60;99.90
14735;DHT22;7458;49.002;8.472;2023-02-24T18:19:28;10.60;99.90
14735;DHT22;7458;49.002;8.472;2023-02-24T18:21:55;10.60;99.90
14735;DHT22;7458;49.002;8.472;2023-02-24T18:24:20;10.60;99.90
14735;DHT22;7458;49.002;8.472;2023-02-24T18:26:47;10.50;99.90
14735;DHT22;7458;49.002;8.472;2023-02-24T18:29:13;10.60;99.90
14735;DHT22;7458;49.002;8.472;2023-02-24T18:31:39;10.50;99.90
14735;DHT22;7458;49.002;8.472;2023-02-24T18:34:04;10.50;99.90
14735;DHT22;7458;49.002;8.472;2023-02-24T18:36:30;10.50;99.90
14735;DHT22;7458;49.002;8.472;2023-02-24T18:38:56;10.50;99.90
14735;DHT22;7458;49.002;8.472;2023-02-24T18:41:22;10.40;99.90
14735;DHT22;7458;49.002;8.472;2023-02-24T18:43:51;10.30;99.90
14735;DHT22;7458;49.002;8.472;2023-02-24T18:46:18;10.30;99.90
14735;DHT22;7458;49.002;8.472;2023-02-24T18:48:45;10.30;99.90
14735;DHT22;7458;49.002;8.472;2023-02-24T18:51:17;10.30;99.90
14735;DHT22;7458;49.002;8.472;2023-02-24T18:53:45;10.30;99.90
14735;DHT22;7458;49.002;8.472;2023-02-24T18:56:16;10.30;99.90
14735;DHT22;7458;49.002;8.472;2023-02-24T18:58:45;10.20;99.90
14735;DHT22;7458;49.002;8.472;2023-02-24T19:01:16;10.20;99.90
14735;DHT22;7458;49.002;8.472;2023-02-24T19:03:48;10.30;99.90
14735;DHT22;7458;49.002;8.472;2023-02-24T19:06:15;10.30;99.90